createdAt,value
2022-09-02T00:00:23.862Z,92.30
2022-09-02T00:03:27.618Z,92.60
2022-09-02T00:06:31.761Z,93.00
2022-09-02T00:09:37.635Z,92.90
2022-09-02T00:12:40.701Z,93.30
2022-09-02T00:15:44.300Z,93.30
2022-09-02T00:18:48.405Z,93.40
2022-09-02T00:21:52.372Z,93.60
2022-09-02T00:24:56.832Z,94.00
2022-09-02T00:28:00.061Z,94.20
2022-09-02T00:31:03.233Z,94.30
2022-09-02T00:34:07.170Z,94.40
2022-09-02T00:37:10.273Z,94.90
2022-09-02T00:40:15.821Z,95.10
2022-09-02T00:43:26.851Z,95.40
2022-09-02T00:46:32.018Z,95.40
2022-09-02T00:49:39.309Z,95.80
2022-09-02T00:52:45.906Z,96.10
2022-09-02T00:55:52.952Z,96.30
2022-09-02T00:58:57.913Z,96.70
2022-09-02T01:02:01.175Z,96.90
2022-09-02T01:05:07.788Z,96.20
2022-09-02T01:08:10.931Z,96.20
2022-09-02T01:11:16.434Z,96.20
2022-09-02T01:14:19.731Z,96.40
2022-09-02T01:17:22.921Z,96.60
2022-09-02T01:20:27.866Z,96.90
2022-09-02T01:23:34.785Z,96.90
2022-09-02T01:26:38.105Z,97.00
2022-09-02T01:29:41.179Z,97.00
2022-09-02T01:32:44.293Z,97.10
2022-09-02T01:35:47.578Z,97.30
2022-09-02T01:38:52.036Z,97.50
2022-09-02T01:41:55.916Z,97.50
2022-09-02T01:44:59.195Z,97.30
2022-09-02T01:48:02.456Z,97.40
2022-09-02T01:51:06.025Z,97.40
2022-09-02T01:54:10.508Z,97.40
2022-09-02T01:57:14.885Z,97.60
2022-09-02T02:00:18.317Z,97.90
2022-09-02T02:03:21.918Z,98.10
2022-09-02T02:06:25.147Z,98.30
2022-09-02T02:09:29.629Z,98.10
2022-09-02T02:12:32.780Z,98.10
2022-09-02T02:15:38.248Z,98.20
2022-09-02T02:18:41.348Z,98.30
2022-09-02T02:21:44.720Z,98.50
2022-09-02T02:24:49.169Z,98.70
2022-09-02T02:27:52.458Z,99.00
2022-09-02T02:30:56.465Z,99.10
2022-09-02T02:33:59.935Z,98.90
2022-09-02T02:37:03.036Z,98.90
2022-09-02T02:40:09.030Z,98.90
2022-09-02T02:43:12.177Z,99.00
2022-09-02T02:46:15.636Z,99.10
2022-09-02T02:49:18.778Z,99.10
2022-09-02T02:52:21.963Z,99.10
2022-09-02T02:55:26.866Z,99.10
2022-09-02T02:58:30.371Z,99.30
2022-09-02T03:01:34.386Z,99.40
2022-09-02T03:04:39.966Z,99.50
2022-09-02T03:07:43.125Z,99.70
2022-09-02T03:10:47.995Z,99.90
2022-09-02T03:13:51.489Z,99.90
2022-09-02T03:16:54.676Z,99.90
2022-09-02T03:19:59.437Z,99.90
2022-09-02T03:23:03.293Z,99.90
2022-09-02T03:26:12.816Z,99.90
2022-09-02T03:29:15.913Z,99.90
2022-09-02T03:32:19.076Z,99.90
2022-09-02T03:35:23.511Z,99.90
2022-09-02T03:38:26.946Z,99.90
2022-09-02T03:41:31.706Z,99.90
2022-09-02T03:44:35.268Z,99.90
2022-09-02T03:47:40.599Z,99.90
2022-09-02T03:50:47.194Z,99.90
2022-09-02T03:53:50.288Z,99.90
2022-09-02T03:56:54.839Z,99.90
2022-09-02T03:59:58.394Z,99.90
2022-09-02T04:03:03.736Z,99.90
2022-09-02T04:06:10.375Z,99.90
2022-09-02T04:09:13.521Z,99.90
2022-09-02T04:12:18.016Z,99.90
2022-09-02T04:15:22.106Z,99.90
2022-09-02T04:18:25.182Z,99.90
2022-09-02T04:21:33.820Z,99.90
2022-09-02T04:24:36.960Z,99.90
2022-09-02T04:27:41.657Z,99.90
2022-09-02T04:30:45.612Z,99.90
2022-09-02T04:33:49.116Z,99.90
2022-09-02T04:36:53.181Z,99.90
2022-09-02T04:39:57.904Z,99.90
2022-09-02T04:43:02.505Z,99.90
2022-09-02T04:46:07.241Z,99.90
2022-09-02T04:49:11.110Z,99.90
2022-09-02T04:52:14.203Z,99.90
2022-09-02T04:55:17.436Z,99.90
2022-09-02T04:58:21.893Z,99.90
2022-09-02T05:01:26.935Z,99.90
2022-09-02T05:04:31.693Z,99.90
2022-09-02T05:07:37.115Z,99.90
2022-09-02T05:10:41.821Z,99.90
2022-09-02T05:13:48.915Z,99.90
2022-09-02T05:16:53.934Z,99.90
2022-09-02T05:19:57.115Z,99.90
2022-09-02T05:23:00.199Z,99.90
2022-09-02T05:26:04.740Z,99.90
2022-09-02T05:29:09.975Z,99.90
2022-09-02T05:32:13.200Z,99.90
2022-09-02T05:35:16.493Z,99.90
2022-09-02T05:38:19.624Z,99.90
2022-09-02T05:41:24.972Z,99.90
2022-09-02T05:44:31.430Z,99.90
2022-09-02T05:47:35.106Z,99.90
2022-09-02T05:50:38.785Z,99.90
2022-09-02T05:53:41.898Z,99.70
2022-09-02T05:56:47.544Z,98.20
2022-09-02T05:59:56.160Z,97.70
2022-09-02T06:02:59.326Z,96.40
2022-09-02T06:06:06.594Z,96.90
2022-09-02T06:09:12.789Z,97.00
2022-09-02T06:12:18.895Z,96.90
2022-09-02T06:15:23.520Z,95.00
2022-09-02T06:18:26.784Z,92.50
2022-09-02T06:21:30.511Z,89.40
2022-09-02T06:24:33.753Z,84.30
2022-09-02T06:27:39.059Z,79.50
2022-09-02T06:30:46.602Z,73.10
2022-09-02T06:33:52.684Z,65.70
2022-09-02T06:36:57.632Z,59.40
2022-09-02T06:40:01.544Z,58.20
2022-09-02T06:43:04.875Z,54.50
2022-09-02T06:46:09.662Z,52.10
2022-09-02T06:49:16.275Z,50.80
2022-09-02T06:52:19.395Z,50.90
2022-09-02T06:55:22.577Z,51.10
2022-09-02T06:58:25.724Z,49.10
2022-09-02T07:01:32.716Z,48.80
2022-09-02T07:04:55.622Z,46.10
2022-09-02T07:08:00.680Z,44.40
2022-09-02T07:11:04.088Z,42.60
2022-09-02T07:14:07.761Z,41.10
2022-09-02T07:17:17.714Z,41.30
2022-09-02T07:20:21.045Z,40.20
2022-09-02T07:23:24.382Z,41.50
2022-09-02T07:26:29.024Z,39.80
2022-09-02T07:29:32.410Z,37.30
2022-09-02T07:32:37.087Z,35.20
2022-09-02T07:35:41.384Z,33.90
2022-09-02T07:38:44.559Z,32.60
2022-09-02T07:41:51.230Z,31.60
2022-09-02T07:44:54.633Z,30.30
2022-09-02T07:47:59.775Z,30.90
2022-09-02T07:51:03.860Z,32.40
2022-09-02T07:54:07.767Z,31.70
2022-09-02T07:57:10.882Z,30.70
2022-09-02T08:00:16.721Z,29.30
2022-09-02T08:03:21.968Z,28.10
2022-09-02T08:06:34.947Z,27.40
2022-09-02T08:09:38.570Z,27.20
2022-09-02T08:12:43.256Z,26.60
2022-09-02T08:15:46.967Z,26.30
2022-09-02T08:18:55.326Z,25.80
2022-09-02T08:22:04.153Z,24.90
2022-09-02T08:25:08.547Z,23.70
2022-09-02T08:28:12.025Z,22.40
2022-09-02T08:31:15.203Z,21.20
2022-09-02T08:34:19.725Z,20.00
2022-09-02T08:37:22.871Z,20.40
2022-09-02T08:40:34.318Z,21.00
2022-09-02T08:43:41.023Z,20.40
2022-09-02T08:46:44.435Z,20.40
2022-09-02T08:49:52.427Z,19.50
2022-09-02T08:53:02.975Z,17.90
2022-09-02T08:56:09.827Z,17.60
2022-09-02T08:59:15.195Z,17.00
2022-09-02T09:02:26.082Z,16.90
2022-09-02T09:05:43.762Z,16.30
2022-09-02T09:08:53.389Z,16.50
2022-09-02T09:12:07.349Z,16.60
2022-09-02T09:15:14.939Z,15.60
2022-09-02T09:18:20.892Z,15.80
2022-09-02T09:24:36.855Z,15.60
2022-09-02T09:27:40.272Z,16.30
2022-09-02T09:30:43.438Z,16.50
2022-09-02T09:34:00.538Z,17.50
2022-09-02T09:37:05.047Z,18.70
2022-09-02T09:40:31.568Z,18.60
2022-09-02T09:43:34.749Z,18.10
2022-09-02T09:46:38.052Z,18.10
2022-09-02T09:49:41.398Z,18.30
2022-09-02T09:52:47.935Z,19.10
2022-09-02T09:55:53.939Z,20.20
2022-09-02T09:58:57.046Z,20.90
2022-09-02T10:02:00.241Z,21.90
2022-09-02T10:05:17.726Z,23.90
2022-09-02T10:08:24.550Z,24.30
2022-09-02T10:11:29.831Z,25.60
2022-09-02T10:14:37.884Z,26.40
2022-09-02T10:17:51.985Z,27.50
2022-09-02T10:21:14.903Z,28.40
2022-09-02T10:24:37.211Z,29.10
2022-09-02T10:27:51.053Z,29.60
2022-09-02T10:31:01.686Z,30.70
2022-09-02T10:34:17.186Z,31.80
2022-09-02T10:37:23.281Z,32.20
2022-09-02T10:40:37.731Z,32.10
2022-09-02T10:43:59.141Z,32.10
2022-09-02T10:47:04.834Z,32.70
2022-09-02T10:50:20.767Z,33.20
2022-09-02T10:53:39.782Z,34.00
2022-09-02T10:56:51.011Z,33.60
2022-09-02T11:00:02.493Z,32.90
2022-09-02T11:03:14.456Z,33.70
2022-09-02T11:06:22.299Z,34.40
2022-09-02T11:09:32.905Z,33.00
2022-09-02T11:12:41.799Z,32.30
2022-09-02T11:15:50.023Z,33.10
2022-09-02T11:19:00.099Z,34.80
2022-09-02T11:22:13.235Z,33.90
2022-09-02T11:25:22.286Z,34.10
2022-09-02T11:28:34.137Z,34.60
2022-09-02T11:31:43.084Z,34.30
2022-09-02T11:34:49.573Z,34.20
2022-09-02T11:37:58.204Z,34.20
2022-09-02T11:41:36.686Z,33.90
2022-09-02T11:45:23.990Z,33.70
2022-09-02T11:49:09.308Z,33.70
2022-09-02T11:52:30.151Z,33.60
2022-09-02T11:55:37.267Z,33.40
2022-09-02T11:58:43.734Z,32.50
2022-09-02T12:01:52.784Z,32.10
2022-09-02T12:05:42.217Z,32.00
2022-09-02T12:09:07.857Z,31.30
2022-09-02T12:12:13.762Z,30.60
2022-09-02T12:15:19.952Z,30.20
2022-09-02T12:18:32.136Z,30.60
2022-09-02T12:21:36.459Z,31.90
2022-09-02T12:24:51.590Z,32.00
2022-09-02T12:28:18.950Z,30.60
2022-09-02T12:31:43.156Z,30.10
2022-09-02T12:35:10.147Z,30.60
2022-09-02T12:38:31.576Z,31.80
2022-09-02T12:41:41.607Z,32.00
2022-09-02T12:44:49.377Z,30.90
2022-09-02T12:48:00.404Z,31.40
2022-09-02T12:51:05.028Z,31.00
2022-09-02T12:54:08.156Z,30.90
2022-09-02T12:57:12.075Z,31.40
2022-09-02T13:00:19.611Z,31.10
2022-09-02T13:03:42.886Z,31.60
2022-09-02T13:07:14.137Z,31.70
2022-09-02T13:10:34.217Z,31.20
2022-09-02T13:14:15.981Z,30.90
2022-09-02T13:17:45.323Z,31.00
2022-09-02T13:21:06.086Z,31.10
2022-09-02T13:24:57.424Z,32.70
2022-09-02T13:28:47.984Z,33.40
2022-09-02T13:32:01.510Z,33.40
2022-09-02T13:35:07.845Z,33.50
2022-09-02T13:38:12.147Z,33.70
2022-09-02T13:41:30.848Z,34.00
2022-09-02T13:44:34.944Z,34.90
2022-09-02T13:47:38.540Z,35.10
2022-09-02T13:50:45.120Z,36.30
2022-09-02T13:54:21.591Z,37.40
2022-09-02T13:57:21.132Z,37.30
2022-09-02T14:00:31.187Z,37.30
2022-09-02T14:03:34.817Z,37.40
2022-09-02T14:06:41.413Z,37.30
2022-09-02T14:09:46.463Z,38.20
2022-09-02T14:12:52.207Z,37.90
2022-09-02T14:15:55.731Z,38.40
2022-09-02T14:19:06.460Z,38.40
2022-09-02T14:22:23.744Z,39.20
2022-09-02T14:25:28.555Z,39.30
2022-09-02T14:28:35.828Z,39.80
2022-09-02T14:31:39.013Z,40.00
2022-09-02T14:34:44.437Z,39.70
2022-09-02T14:37:53.183Z,40.40
2022-09-02T14:41:12.257Z,40.50
2022-09-02T14:44:24.644Z,39.90
2022-09-02T14:47:28.721Z,40.00
2022-09-02T14:50:36.599Z,39.10
2022-09-02T14:53:45.038Z,39.10
2022-09-02T14:56:51.881Z,39.50
2022-09-02T14:59:57.720Z,40.70
2022-09-02T15:03:01.133Z,41.00
2022-09-02T15:06:05.221Z,41.10
2022-09-02T15:09:08.364Z,40.80
2022-09-02T15:12:12.809Z,40.70
2022-09-02T15:15:17.481Z,40.70
2022-09-02T15:18:20.665Z,40.70
2022-09-02T15:21:24.366Z,40.30
2022-09-02T15:24:27.666Z,39.90
2022-09-02T15:27:31.170Z,39.60
2022-09-02T15:30:37.213Z,40.30
2022-09-02T15:33:41.061Z,40.30
2022-09-02T15:36:44.180Z,40.70
2022-09-02T15:39:47.399Z,40.30
2022-09-02T15:42:50.563Z,40.40
2022-09-02T15:45:55.099Z,40.40
2022-09-02T15:49:03.098Z,41.00
2022-09-02T15:52:06.608Z,41.40
2022-09-02T15:55:10.017Z,43.20
2022-09-02T15:58:13.150Z,43.70
2022-09-02T16:01:20.096Z,44.10
2022-09-02T16:04:27.233Z,45.10
2022-09-02T16:07:30.945Z,45.00
2022-09-02T16:10:36.919Z,45.20
2022-09-02T16:13:40.069Z,45.40
2022-09-02T16:16:45.612Z,45.50
2022-09-02T16:19:48.768Z,46.10
2022-09-02T16:22:52.005Z,46.30
2022-09-02T16:26:12.435Z,46.10
2022-09-02T16:29:17.766Z,46.10
2022-09-02T16:32:27.816Z,46.50
2022-09-02T16:35:31.094Z,47.50
2022-09-02T16:38:34.965Z,48.10
2022-09-02T16:41:42.146Z,49.20
2022-09-02T16:44:45.493Z,49.50
2022-09-02T16:47:56.163Z,49.90
2022-09-02T16:51:03.064Z,49.80
2022-09-02T16:54:06.699Z,50.20
2022-09-02T16:57:10.132Z,50.50
2022-09-02T17:00:14.733Z,50.80
2022-09-02T17:03:19.241Z,51.20
2022-09-02T17:06:22.384Z,51.80
2022-09-02T17:09:25.493Z,52.10
2022-09-02T17:12:28.626Z,52.40
2022-09-02T17:15:31.877Z,52.60
2022-09-02T17:18:36.685Z,53.30
2022-09-02T17:21:43.318Z,53.50
2022-09-02T17:24:49.443Z,53.80
2022-09-02T17:27:54.860Z,53.50
2022-09-02T17:30:58.361Z,53.60
2022-09-02T17:34:04.963Z,53.90
2022-09-02T17:37:08.189Z,54.00
2022-09-02T17:40:33.145Z,54.50
2022-09-02T17:43:38.366Z,54.40
2022-09-02T17:46:41.866Z,54.80
2022-09-02T17:49:46.749Z,55.40
2022-09-02T17:52:50.001Z,55.40
2022-09-02T17:55:58.018Z,55.90
2022-09-02T17:59:12.213Z,56.40
2022-09-02T18:02:39.220Z,56.50
2022-09-02T18:05:54.706Z,56.80
2022-09-02T18:08:59.971Z,57.30
2022-09-02T18:12:03.243Z,57.50
2022-09-02T18:15:08.011Z,58.00
2022-09-02T18:18:12.725Z,58.30
2022-09-02T18:21:25.774Z,58.50
2022-09-02T18:24:41.051Z,58.90
2022-09-02T18:27:53.693Z,59.10
2022-09-02T18:31:07.532Z,59.20
2022-09-02T18:34:30.650Z,59.70
2022-09-02T18:37:44.199Z,59.60
2022-09-02T18:40:54.814Z,60.40
2022-09-02T18:44:09.323Z,60.60
2022-09-02T18:47:19.065Z,60.90
2022-09-02T18:50:47.598Z,61.30
2022-09-02T18:53:54.360Z,61.80
2022-09-02T18:56:59.792Z,62.20
2022-09-02T19:00:06.752Z,62.40
2022-09-02T19:03:09.979Z,63.00
2022-09-02T19:06:20.460Z,64.00
2022-09-02T19:09:26.995Z,64.30
2022-09-02T19:12:35.866Z,64.70
2022-09-02T19:15:40.020Z,65.20
2022-09-02T19:18:44.674Z,66.10
2022-09-02T19:21:51.354Z,66.60
2022-09-02T19:25:00.857Z,67.30
2022-09-02T19:28:06.374Z,67.70
2022-09-02T19:31:17.925Z,68.00
2022-09-02T19:34:21.985Z,68.50
2022-09-02T19:37:25.395Z,68.80
2022-09-02T19:40:33.166Z,69.30
2022-09-02T19:43:38.938Z,69.70
2022-09-02T19:50:07.442Z,70.00
2022-09-02T19:53:16.167Z,70.70
2022-09-02T19:56:20.908Z,71.10
2022-09-02T19:59:24.488Z,71.90
2022-09-02T20:02:27.710Z,72.20
2022-09-02T20:05:31.358Z,72.70
2022-09-02T20:08:34.570Z,73.20
2022-09-02T20:11:39.112Z,73.60
2022-09-02T20:14:45.697Z,74.10
2022-09-02T20:17:48.954Z,74.50
2022-09-02T20:20:55.129Z,75.10
2022-09-02T20:24:02.681Z,76.10
2022-09-02T20:27:19.000Z,76.90
2022-09-02T20:30:22.287Z,77.60
2022-09-02T20:33:34.851Z,78.00
2022-09-02T20:36:45.210Z,78.60
2022-09-02T20:40:04.693Z,79.10
2022-09-02T20:43:30.996Z,80.10
2022-09-02T20:46:51.813Z,80.70
2022-09-02T20:50:18.418Z,82.50
2022-09-02T20:53:37.507Z,83.10
2022-09-02T20:56:49.654Z,84.00
2022-09-02T21:00:03.950Z,84.90
2022-09-02T21:03:12.141Z,85.70
2022-09-02T21:06:15.928Z,86.40
2022-09-02T21:09:30.209Z,87.20
2022-09-02T21:12:40.407Z,88.00
2022-09-02T21:15:49.911Z,89.10
2022-09-02T21:19:03.769Z,89.90
2022-09-02T21:22:15.036Z,90.10
2022-09-02T21:25:24.625Z,90.40
2022-09-02T21:28:34.384Z,90.70
2022-09-02T21:31:43.532Z,91.00
2022-09-02T21:34:53.493Z,91.50
2022-09-02T21:38:02.527Z,92.10
2022-09-02T21:41:16.976Z,92.20
2022-09-02T21:44:31.564Z,92.50
2022-09-02T21:47:43.917Z,92.90
2022-09-02T21:50:56.399Z,93.50
2022-09-02T21:54:11.356Z,93.50
2022-09-02T21:57:26.165Z,94.00
2022-09-02T22:00:29.332Z,94.30
2022-09-02T22:03:41.488Z,94.50
2022-09-02T22:06:48.723Z,94.80
2022-09-02T22:10:03.861Z,95.20
2022-09-02T22:13:08.015Z,95.50
2022-09-02T22:16:21.371Z,95.70
2022-09-02T22:19:30.409Z,96.00
2022-09-02T22:22:39.498Z,96.10
2022-09-02T22:25:42.880Z,96.40
2022-09-02T22:28:51.071Z,96.40
2022-09-02T22:31:57.803Z,96.60
2022-09-02T22:35:09.481Z,96.90
2022-09-02T22:38:21.966Z,97.10
2022-09-02T22:41:28.951Z,97.10
2022-09-02T22:44:55.785Z,97.40
2022-09-02T22:48:22.077Z,97.70
2022-09-02T22:51:48.142Z,98.00
2022-09-02T22:54:52.372Z,98.10
2022-09-02T22:58:04.288Z,98.30
2022-09-02T23:01:19.111Z,98.60
2022-09-02T23:04:42.691Z,98.80
2022-09-02T23:07:47.137Z,99.10
2022-09-02T23:10:57.070Z,99.50
2022-09-02T23:14:11.871Z,99.90
2022-09-02T23:17:27.636Z,99.90
2022-09-02T23:20:39.619Z,99.90
2022-09-02T23:23:53.348Z,99.90
2022-09-02T23:27:07.946Z,99.90
2022-09-02T23:30:12.112Z,99.90
2022-09-02T23:33:31.513Z,99.90
2022-09-02T23:36:47.443Z,99.90
2022-09-02T23:40:02.017Z,99.90
2022-09-02T23:43:05.297Z,99.90
2022-09-02T23:46:20.745Z,99.90
2022-09-02T23:49:38.037Z,99.90
2022-09-02T23:52:56.253Z,99.90
2022-09-02T23:56:11.048Z,99.90
2022-09-02T23:59:33.889Z,99.90
